createdAt,value
2023-03-30T00:00:03.514Z,12.15
2023-03-30T00:01:03.752Z,12.13
2023-03-30T00:02:03.497Z,12.13
2023-03-30T00:03:03.715Z,12.20
2023-03-30T00:04:03.771Z,12.22
2023-03-30T00:05:03.625Z,12.22
2023-03-30T00:06:03.434Z,12.25
2023-03-30T00:07:03.404Z,12.29
2023-03-30T00:08:03.403Z,12.32
2023-03-30T00:09:03.375Z,12.29
2023-03-30T00:10:03.365Z,12.31
2023-03-30T00:11:03.587Z,12.29
2023-03-30T00:12:03.347Z,12.29
2023-03-30T00:13:03.338Z,12.28
2023-03-30T00:14:03.311Z,12.25
2023-03-30T00:15:03.301Z,12.25
2023-03-30T00:16:03.340Z,12.24
2023-03-30T00:17:03.282Z,12.22
2023-03-30T00:18:03.291Z,12.21
2023-03-30T00:19:03.243Z,12.21
2023-03-30T00:20:03.321Z,12.21
2023-03-30T00:21:03.507Z,12.24
2023-03-30T00:22:03.212Z,12.28
2023-03-30T00:23:03.206Z,12.32
2023-03-30T00:24:03.186Z,12.39
2023-03-30T00:25:03.173Z,12.39
2023-03-30T00:26:03.171Z,12.39
2023-03-30T00:27:03.172Z,12.39
2023-03-30T00:28:03.151Z,12.39
2023-03-30T00:29:03.129Z,12.37
2023-03-30T00:30:03.113Z,12.32
2023-03-30T00:31:03.343Z,12.31
2023-03-30T00:32:03.116Z,12.29
2023-03-30T00:33:03.145Z,12.27
2023-03-30T00:34:03.066Z,12.24
2023-03-30T00:35:03.035Z,12.22
2023-03-30T00:36:03.087Z,12.22
2023-03-30T00:37:03.010Z,12.17
2023-03-30T00:38:03.007Z,12.10
2023-03-30T00:39:02.999Z,12.07
2023-03-30T00:40:02.998Z,12.00
2023-03-30T00:41:03.256Z,11.99
2023-03-30T00:42:02.955Z,11.94
2023-03-30T00:43:02.949Z,11.91
2023-03-30T00:44:02.920Z,11.87
2023-03-30T00:45:02.908Z,11.87
2023-03-30T00:46:02.976Z,11.84
2023-03-30T00:47:02.895Z,11.80
2023-03-30T00:48:02.933Z,11.80
2023-03-30T00:49:02.861Z,11.77
2023-03-30T00:50:02.862Z,11.77
2023-03-30T00:51:03.206Z,11.75
2023-03-30T00:52:02.890Z,11.78
2023-03-30T00:53:02.798Z,11.80
2023-03-30T00:54:02.813Z,11.78
2023-03-30T00:55:02.783Z,11.77
2023-03-30T00:56:02.771Z,11.81
2023-03-30T00:57:02.868Z,11.78
2023-03-30T00:58:02.754Z,11.80
2023-03-30T00:59:02.756Z,11.75
2023-03-30T01:00:02.724Z,11.75
2023-03-30T01:01:03.040Z,11.75
2023-03-30T01:02:02.786Z,11.73
2023-03-30T01:03:02.793Z,11.72
2023-03-30T01:04:02.688Z,11.72
2023-03-30T01:05:02.658Z,11.75
2023-03-30T01:06:02.652Z,11.75
2023-03-30T01:07:02.627Z,11.77
2023-03-30T01:08:02.648Z,11.78
2023-03-30T01:09:02.610Z,11.78
2023-03-30T01:10:02.608Z,11.77
2023-03-30T01:11:02.972Z,11.77
2023-03-30T01:12:02.561Z,11.77
2023-03-30T01:13:02.559Z,11.81
2023-03-30T01:14:02.558Z,11.83
2023-03-30T01:15:02.534Z,11.83
2023-03-30T01:16:02.658Z,11.83
2023-03-30T01:17:02.524Z,11.88
2023-03-30T01:18:02.532Z,11.94
2023-03-30T01:19:02.478Z,11.95
2023-03-30T01:20:02.471Z,12.02
2023-03-30T01:21:02.914Z,12.06
2023-03-30T01:22:02.446Z,12.07
2023-03-30T01:23:02.458Z,12.10
2023-03-30T01:24:02.444Z,12.10
2023-03-30T01:25:02.386Z,12.13
2023-03-30T01:26:02.385Z,12.17
2023-03-30T01:27:02.381Z,12.20
2023-03-30T01:28:02.362Z,12.17
2023-03-30T01:29:02.370Z,12.17
2023-03-30T01:30:02.363Z,12.17
2023-03-30T01:31:02.508Z,12.13
2023-03-30T01:32:02.317Z,12.15
2023-03-30T01:33:02.375Z,12.20
2023-03-30T01:34:02.284Z,12.18
2023-03-30T01:35:02.399Z,12.17
2023-03-30T01:36:02.291Z,12.18
2023-03-30T01:37:02.252Z,12.15
2023-03-30T01:38:02.230Z,12.15
2023-03-30T01:39:02.214Z,12.20
2023-03-30T01:40:02.244Z,12.18
2023-03-30T01:41:02.462Z,12.12
2023-03-30T01:42:02.184Z,12.13
2023-03-30T01:43:02.178Z,12.12
2023-03-30T01:44:02.180Z,12.12
2023-03-30T01:45:02.152Z,12.12
2023-03-30T01:46:02.143Z,12.09
2023-03-30T01:47:02.130Z,12.09
2023-03-30T01:48:02.144Z,12.06
2023-03-30T01:49:02.096Z,12.07
2023-03-30T01:50:02.082Z,12.09
2023-03-30T01:51:02.275Z,12.13
2023-03-30T01:52:02.059Z,12.12
2023-03-30T01:53:02.040Z,12.15
2023-03-30T01:54:02.045Z,12.15
2023-03-30T01:55:02.021Z,12.10
2023-03-30T01:56:02.035Z,12.12
2023-03-30T01:57:02.011Z,12.17
2023-03-30T01:58:01.975Z,12.17
2023-03-30T01:59:01.978Z,12.15
2023-03-30T02:00:01.967Z,12.15
2023-03-30T02:01:02.273Z,12.17
2023-03-30T02:02:01.981Z,12.13
2023-03-30T02:03:01.998Z,12.12
2023-03-30T02:04:02.087Z,12.12
2023-03-30T02:05:01.894Z,12.09
2023-03-30T02:06:01.882Z,12.06
2023-03-30T02:07:01.901Z,12.04
2023-03-30T02:08:01.861Z,12.00
2023-03-30T02:09:01.836Z,12.03
2023-03-30T02:10:01.838Z,11.99
2023-03-30T02:11:02.162Z,12.00
2023-03-30T02:12:01.832Z,11.95
2023-03-30T02:13:01.825Z,11.95
2023-03-30T02:14:01.799Z,11.91
2023-03-30T02:15:01.770Z,11.91
2023-03-30T02:16:01.772Z,11.95
2023-03-30T02:17:01.757Z,11.91
2023-03-30T02:18:01.800Z,11.91
2023-03-30T02:19:01.731Z,11.90
2023-03-30T02:20:01.715Z,11.88
2023-03-30T02:21:01.865Z,11.90
2023-03-30T02:22:01.674Z,11.84
2023-03-30T02:23:01.666Z,11.83
2023-03-30T02:24:01.650Z,11.78
2023-03-30T02:25:01.633Z,11.80
2023-03-30T02:26:01.653Z,11.78
2023-03-30T02:27:01.628Z,11.68
2023-03-30T02:28:01.621Z,11.59
2023-03-30T02:29:01.585Z,11.54
2023-03-30T02:30:01.583Z,11.47
2023-03-30T02:31:01.765Z,11.43
2023-03-30T02:32:01.652Z,11.40
2023-03-30T02:33:01.594Z,11.37
2023-03-30T02:34:01.514Z,11.36
2023-03-30T02:35:01.524Z,11.33
2023-03-30T02:36:01.521Z,11.32
2023-03-30T02:37:01.484Z,11.33
2023-03-30T02:38:01.472Z,11.27
2023-03-30T02:39:01.463Z,11.23
2023-03-30T02:40:01.434Z,11.19
2023-03-30T02:41:01.536Z,11.14
2023-03-30T02:42:01.423Z,11.11
2023-03-30T02:43:01.420Z,11.07
2023-03-30T02:44:01.450Z,11.02
2023-03-30T02:45:01.379Z,11.00
2023-03-30T02:46:01.448Z,10.97
2023-03-30T02:47:01.354Z,10.93
2023-03-30T02:48:01.414Z,10.90
2023-03-30T02:49:01.330Z,10.90
2023-03-30T02:50:01.358Z,10.87
2023-03-30T02:51:01.425Z,10.86
2023-03-30T02:52:01.292Z,10.82
2023-03-30T02:53:01.279Z,10.79
2023-03-30T02:54:01.270Z,10.76
2023-03-30T02:55:01.259Z,10.74
2023-03-30T02:56:01.245Z,10.69
2023-03-30T02:57:01.244Z,10.72
2023-03-30T02:58:01.226Z,10.68
2023-03-30T02:59:01.211Z,10.69
2023-03-30T03:00:01.233Z,10.67
2023-03-30T03:01:01.322Z,10.67
2023-03-30T03:02:01.219Z,10.64
2023-03-30T03:03:01.310Z,10.63
2023-03-30T03:04:01.138Z,10.57
2023-03-30T03:05:01.124Z,10.54
2023-03-30T03:06:01.106Z,10.56
2023-03-30T03:07:01.104Z,10.51
2023-03-30T03:08:01.077Z,10.49
2023-03-30T03:09:01.075Z,10.44
2023-03-30T03:10:01.067Z,10.42
2023-03-30T03:11:01.178Z,10.40
2023-03-30T03:12:01.031Z,10.37
2023-03-30T03:13:01.025Z,10.34
2023-03-30T03:14:01.006Z,10.34
2023-03-30T03:15:00.998Z,10.30
2023-03-30T03:16:03.663Z,10.28
2023-03-30T03:17:01.007Z,10.28
2023-03-30T03:18:01.004Z,10.26
2023-03-30T03:19:00.949Z,10.25
2023-03-30T03:20:00.922Z,10.23
2023-03-30T03:21:00.924Z,10.23
2023-03-30T03:22:00.907Z,10.23
2023-03-30T03:23:00.886Z,10.23
2023-03-30T03:24:00.872Z,10.20
2023-03-30T03:25:00.864Z,10.20
2023-03-30T03:26:00.854Z,10.17
2023-03-30T03:27:00.843Z,10.16
2023-03-30T03:28:00.830Z,10.13
2023-03-30T03:29:00.816Z,10.12
2023-03-30T03:30:00.817Z,10.12
2023-03-30T03:31:00.859Z,10.10
2023-03-30T03:32:00.800Z,10.09
2023-03-30T03:33:00.785Z,10.05
2023-03-30T03:34:00.742Z,10.07
2023-03-30T03:35:00.736Z,10.09
2023-03-30T03:36:00.773Z,10.07
2023-03-30T03:37:00.720Z,10.05
2023-03-30T03:38:00.714Z,10.05
2023-03-30T03:39:00.681Z,10.02
2023-03-30T03:40:00.680Z,10.01
2023-03-30T03:41:00.668Z,10.02
2023-03-30T03:42:00.639Z,9.98
2023-03-30T03:43:00.649Z,9.97
2023-03-30T03:44:00.622Z,9.97
2023-03-30T03:45:00.617Z,9.98
2023-03-30T03:46:00.638Z,9.95
2023-03-30T03:47:00.596Z,9.95
2023-03-30T03:48:00.687Z,9.95
2023-03-30T03:49:00.550Z,9.95
2023-03-30T03:50:00.541Z,9.97
2023-03-30T03:51:00.533Z,9.95
2023-03-30T03:52:00.522Z,9.92
2023-03-30T03:53:00.501Z,9.92
2023-03-30T03:54:00.483Z,9.92
2023-03-30T03:55:00.485Z,9.91
2023-03-30T03:56:00.480Z,9.87
2023-03-30T03:57:00.505Z,9.86
2023-03-30T03:58:00.435Z,9.86
2023-03-30T03:59:00.431Z,9.84
2023-03-30T04:00:00.409Z,9.83
2023-03-30T04:01:00.475Z,9.82
2023-03-30T04:02:00.437Z,9.80
2023-03-30T04:03:00.398Z,9.80
2023-03-30T04:04:00.397Z,9.80
2023-03-30T04:05:00.446Z,9.80
2023-03-30T04:06:00.382Z,9.80
2023-03-30T04:07:00.323Z,9.83
2023-03-30T04:08:00.316Z,9.82
2023-03-30T04:09:00.303Z,9.79
2023-03-30T04:10:00.295Z,9.80
2023-03-30T04:11:00.273Z,9.80
2023-03-30T04:12:00.258Z,9.80
2023-03-30T04:13:00.240Z,9.76
2023-03-30T04:14:00.235Z,9.77
2023-03-30T04:15:00.213Z,9.74
2023-03-30T04:16:00.261Z,9.72
2023-03-30T04:17:00.195Z,9.68
2023-03-30T04:18:00.233Z,9.68
2023-03-30T04:19:00.203Z,9.65
2023-03-30T04:20:00.188Z,9.62
2023-03-30T04:21:00.153Z,9.61
2023-03-30T04:22:00.176Z,9.61
2023-03-30T04:23:00.121Z,9.61
2023-03-30T04:24:00.159Z,9.59
2023-03-30T04:25:00.119Z,9.62
2023-03-30T04:26:00.125Z,9.61
2023-03-30T04:27:00.096Z,9.62
2023-03-30T04:28:00.048Z,9.61
2023-03-30T04:29:00.046Z,9.62
2023-03-30T04:30:00.033Z,9.64
2023-03-30T04:31:00.042Z,9.65
2023-03-30T04:32:00.022Z,9.65
2023-03-30T04:33:00.015Z,9.64
2023-03-30T04:33:59.968Z,9.62
2023-03-30T04:34:59.962Z,9.61
2023-03-30T04:35:59.996Z,9.58
2023-03-30T04:36:59.954Z,9.55
2023-03-30T04:37:59.926Z,9.51
2023-03-30T04:38:59.909Z,9.48
2023-03-30T04:39:59.919Z,9.51
2023-03-30T04:40:59.888Z,9.50
2023-03-30T04:41:59.880Z,9.50
2023-03-30T04:42:59.853Z,9.47
2023-03-30T04:43:59.848Z,9.44
2023-03-30T04:44:59.828Z,9.44
2023-03-30T04:45:59.904Z,9.44
2023-03-30T04:46:59.806Z,9.40
2023-03-30T04:47:59.799Z,9.40
2023-03-30T04:48:59.784Z,9.40
2023-03-30T04:49:59.771Z,9.39
2023-03-30T04:50:59.756Z,9.32
2023-03-30T04:51:59.764Z,9.29
2023-03-30T04:52:59.739Z,9.26
2023-03-30T04:53:59.750Z,9.23
2023-03-30T04:54:59.707Z,9.21
2023-03-30T04:55:59.694Z,9.22
2023-03-30T04:56:59.726Z,9.21
2023-03-30T04:57:59.666Z,9.19
2023-03-30T04:58:59.674Z,9.18
2023-03-30T04:59:59.661Z,9.11
2023-03-30T05:00:59.660Z,9.14
2023-03-30T05:01:59.740Z,9.11
2023-03-30T05:02:59.730Z,9.13
2023-03-30T05:03:59.595Z,9.10
2023-03-30T05:04:59.595Z,9.11
2023-03-30T05:05:59.554Z,9.08
2023-03-30T05:06:59.551Z,9.06
2023-03-30T05:07:59.564Z,9.03
2023-03-30T05:08:59.518Z,9.04
2023-03-30T05:09:59.514Z,9.08
2023-03-30T05:10:59.501Z,9.04
2023-03-30T05:11:59.480Z,9.04
2023-03-30T05:12:59.473Z,9.08
2023-03-30T05:13:59.459Z,9.08
2023-03-30T05:14:59.448Z,9.10
2023-03-30T05:15:59.456Z,9.11
2023-03-30T05:16:59.467Z,9.10
2023-03-30T05:17:59.471Z,9.08
2023-03-30T05:18:59.406Z,9.10
2023-03-30T05:19:59.400Z,9.13
2023-03-30T05:20:59.388Z,9.11
2023-03-30T05:21:59.361Z,9.11
2023-03-30T05:22:59.337Z,9.08
2023-03-30T05:23:59.361Z,9.13
2023-03-30T05:24:59.308Z,9.13
2023-03-30T05:25:59.321Z,9.14
2023-03-30T05:26:59.282Z,9.13
2023-03-30T05:27:59.283Z,9.13
2023-03-30T05:28:59.266Z,9.13
2023-03-30T05:29:59.269Z,9.14
2023-03-30T05:30:59.286Z,9.13
2023-03-30T05:31:59.226Z,9.14
2023-03-30T05:32:59.237Z,9.16
2023-03-30T05:33:59.202Z,9.14
2023-03-30T05:34:59.185Z,9.16
2023-03-30T05:35:59.213Z,9.18
2023-03-30T05:36:59.162Z,9.19
2023-03-30T05:37:59.150Z,9.19
2023-03-30T05:38:59.126Z,9.18
2023-03-30T05:39:59.137Z,9.19
2023-03-30T05:40:59.107Z,9.21
2023-03-30T05:41:59.083Z,9.21
2023-03-30T05:42:59.090Z,9.21
2023-03-30T05:43:59.076Z,9.19
2023-03-30T05:44:59.053Z,9.18
2023-03-30T05:45:59.081Z,9.18
2023-03-30T05:46:59.039Z,9.19
2023-03-30T05:47:59.091Z,9.21
2023-03-30T05:48:59.012Z,9.22
2023-03-30T05:49:58.997Z,9.21
2023-03-30T05:51:01.084Z,9.22
2023-03-30T05:51:58.962Z,9.21
2023-03-30T05:52:58.947Z,9.22
2023-03-30T05:53:58.935Z,9.25
2023-03-30T05:54:58.938Z,9.26
2023-03-30T05:55:58.940Z,9.25
2023-03-30T05:56:58.947Z,9.28
2023-03-30T05:57:58.888Z,9.31
2023-03-30T05:58:58.868Z,9.31
2023-03-30T05:59:58.851Z,9.31
2023-03-30T06:00:58.843Z,9.34
2023-03-30T06:01:58.834Z,9.36
2023-03-30T06:02:58.840Z,9.37
2023-03-30T06:03:58.947Z,9.39
2023-03-30T06:04:58.865Z,9.40
2023-03-30T06:05:58.799Z,9.41
2023-03-30T06:06:58.766Z,9.44
2023-03-30T06:07:58.747Z,9.44
2023-03-30T06:08:58.742Z,9.48
2023-03-30T06:09:58.736Z,9.54
2023-03-30T06:10:58.709Z,9.58
2023-03-30T06:11:58.728Z,9.59
2023-03-30T06:12:58.688Z,9.61
2023-03-30T06:13:58.828Z,9.68
2023-03-30T06:14:58.657Z,9.66
2023-03-30T06:16:00.258Z,9.69
2023-03-30T06:16:58.709Z,9.69
2023-03-30T06:17:58.654Z,9.69
2023-03-30T06:18:58.617Z,9.68
2023-03-30T06:19:58.598Z,9.66
2023-03-30T06:20:58.586Z,9.65
2023-03-30T06:21:58.587Z,9.68
2023-03-30T06:22:58.581Z,9.69
2023-03-30T06:23:58.621Z,9.66
2023-03-30T06:24:58.531Z,9.66
2023-03-30T06:25:58.518Z,9.62
2023-03-30T06:26:58.507Z,9.66
2023-03-30T06:27:58.524Z,9.66
2023-03-30T06:28:58.482Z,9.69
2023-03-30T06:29:58.474Z,9.73
2023-03-30T06:30:58.458Z,9.74
2023-03-30T06:31:58.478Z,9.76
2023-03-30T06:32:58.456Z,9.79
2023-03-30T06:33:58.405Z,9.82
2023-03-30T06:34:58.405Z,9.82
2023-03-30T06:35:58.430Z,9.82
2023-03-30T06:36:58.373Z,9.82
2023-03-30T06:37:58.357Z,9.82
2023-03-30T06:38:58.351Z,9.79
2023-03-30T06:39:58.339Z,9.77
2023-03-30T06:40:58.318Z,9.72
2023-03-30T06:41:58.318Z,9.72
2023-03-30T06:42:58.298Z,9.73
2023-03-30T06:43:58.315Z,9.76
2023-03-30T06:44:58.276Z,9.79
2023-03-30T06:45:58.377Z,9.79
2023-03-30T06:46:58.243Z,9.82
2023-03-30T06:47:58.257Z,9.86
2023-03-30T06:48:58.221Z,9.87
2023-03-30T06:49:58.406Z,9.89
2023-03-30T06:50:58.193Z,9.92
2023-03-30T06:51:58.798Z,9.97
2023-03-30T06:52:58.160Z,9.99
2023-03-30T06:53:58.147Z,9.98
2023-03-30T06:54:58.153Z,10.01
2023-03-30T06:55:58.140Z,10.04
2023-03-30T06:56:58.176Z,10.10
2023-03-30T06:57:58.103Z,10.15
2023-03-30T06:58:58.096Z,10.19
2023-03-30T06:59:58.111Z,10.25
2023-03-30T07:00:58.129Z,10.34
2023-03-30T07:01:58.150Z,10.46
2023-03-30T07:02:58.106Z,10.56
2023-03-30T07:03:58.038Z,10.60
2023-03-30T07:04:58.012Z,10.68
2023-03-30T07:05:58.004Z,10.72
2023-03-30T07:06:57.986Z,10.75
2023-03-30T07:07:57.978Z,11.05
2023-03-30T07:08:57.956Z,11.55
2023-03-30T07:09:57.948Z,11.94
2023-03-30T07:10:57.944Z,11.77
2023-03-30T07:11:57.927Z,11.50
2023-03-30T07:12:57.909Z,11.45
2023-03-30T07:13:57.890Z,11.40
2023-03-30T07:14:57.878Z,11.29
2023-03-30T07:15:57.895Z,11.23
2023-03-30T07:16:57.915Z,11.27
2023-03-30T07:17:57.898Z,11.32
2023-03-30T07:18:57.826Z,11.40
2023-03-30T07:19:57.831Z,11.45
2023-03-30T07:20:57.807Z,11.44
2023-03-30T07:21:57.804Z,11.40
2023-03-30T07:22:57.786Z,11.59
2023-03-30T07:23:57.763Z,12.39
2023-03-30T07:24:57.770Z,13.41
2023-03-30T07:25:57.738Z,14.47
2023-03-30T07:26:57.728Z,15.09
2023-03-30T07:27:57.726Z,15.15
2023-03-30T07:28:57.696Z,15.64
2023-03-30T07:30:04.622Z,15.43
2023-03-30T07:30:58.848Z,15.31
2023-03-30T07:31:57.724Z,15.68
2023-03-30T07:32:58.654Z,15.92
2023-03-30T07:33:57.640Z,16.01
2023-03-30T07:34:57.619Z,15.98
2023-03-30T07:35:57.663Z,15.83
2023-03-30T07:36:57.601Z,15.59
2023-03-30T07:38:03.269Z,15.39
2023-03-30T07:38:58.639Z,15.11
2023-03-30T07:39:57.594Z,14.89
2023-03-30T07:40:57.547Z,14.60
2023-03-30T07:41:57.526Z,14.45
2023-03-30T07:42:57.520Z,14.36
2023-03-30T07:43:57.518Z,14.29
2023-03-30T07:44:57.493Z,14.15
2023-03-30T07:45:57.558Z,14.04
2023-03-30T07:46:57.460Z,13.99
2023-03-30T07:47:57.514Z,13.92
2023-03-30T07:48:57.438Z,13.93
2023-03-30T07:49:57.435Z,13.93
2023-03-30T07:50:57.412Z,13.93
2023-03-30T07:51:57.402Z,13.89
2023-03-30T07:52:57.394Z,13.85
2023-03-30T07:53:57.373Z,13.78
2023-03-30T07:54:57.364Z,13.72
2023-03-30T07:55:57.353Z,13.68
2023-03-30T07:56:57.380Z,13.62
2023-03-30T07:57:57.332Z,13.54
2023-03-30T07:58:58.968Z,13.42
2023-03-30T07:59:57.306Z,13.30
2023-03-30T08:00:57.297Z,13.18
2023-03-30T08:01:57.274Z,13.13
2023-03-30T08:02:57.333Z,13.12
2023-03-30T08:03:57.352Z,13.05
2023-03-30T08:04:57.490Z,13.04
2023-03-30T08:05:57.233Z,13.03
2023-03-30T08:06:57.212Z,13.00
2023-03-30T08:07:57.194Z,13.01
2023-03-30T08:08:57.194Z,13.01
2023-03-30T08:09:57.162Z,13.05
2023-03-30T08:10:57.163Z,13.05
2023-03-30T08:11:57.146Z,13.09
2023-03-30T08:12:57.136Z,13.22
2023-03-30T08:13:57.120Z,13.31
2023-03-30T08:14:57.109Z,13.35
2023-03-30T08:15:57.156Z,13.46
2023-03-30T08:16:57.081Z,13.57
2023-03-30T08:17:57.106Z,13.65
2023-03-30T08:18:57.062Z,13.67
2023-03-30T08:19:57.069Z,13.68
2023-03-30T08:20:57.032Z,13.70
2023-03-30T08:21:57.189Z,13.71
2023-03-30T08:22:57.000Z,13.68
2023-03-30T08:23:56.993Z,13.63
2023-03-30T08:24:56.978Z,13.65
2023-03-30T08:25:56.960Z,13.63
2023-03-30T08:26:56.956Z,13.59
2023-03-30T08:27:56.926Z,13.53
2023-03-30T08:28:56.938Z,13.52
2023-03-30T08:29:56.944Z,13.57
2023-03-30T08:30:56.927Z,13.57
2023-03-30T08:31:56.977Z,13.59
2023-03-30T08:32:56.977Z,13.60
2023-03-30T08:33:56.875Z,13.72
2023-03-30T08:34:56.902Z,13.83
2023-03-30T08:35:56.994Z,13.77
2023-03-30T08:36:56.925Z,13.75
2023-03-30T08:37:56.799Z,13.77
2023-03-30T08:38:56.812Z,13.79
2023-03-30T08:39:56.791Z,13.90
2023-03-30T08:40:56.779Z,14.00
2023-03-30T08:41:56.752Z,14.12
2023-03-30T08:42:56.736Z,14.14
2023-03-30T08:43:56.733Z,14.15
2023-03-30T08:44:56.708Z,14.18
2023-03-30T08:45:56.709Z,14.28
2023-03-30T08:46:56.687Z,14.36
2023-03-30T08:47:56.805Z,14.40
2023-03-30T08:48:56.670Z,14.37
2023-03-30T08:49:56.644Z,14.50
2023-03-30T08:50:56.666Z,14.48
2023-03-30T08:51:56.643Z,14.55
2023-03-30T08:52:56.625Z,14.79
2023-03-30T08:53:56.599Z,14.88
2023-03-30T08:54:56.579Z,14.82
2023-03-30T08:55:56.571Z,14.70
2023-03-30T08:56:56.598Z,14.58
2023-03-30T08:57:56.547Z,14.50
2023-03-30T08:58:56.533Z,14.43
2023-03-30T08:59:56.531Z,14.36
2023-03-30T09:00:56.556Z,14.36
2023-03-30T09:01:56.548Z,14.30
2023-03-30T09:02:56.568Z,14.26
2023-03-30T09:03:56.495Z,14.30
2023-03-30T09:04:56.493Z,14.25
2023-03-30T09:05:56.443Z,14.18
2023-03-30T09:06:56.426Z,14.12
2023-03-30T09:07:56.453Z,14.08
2023-03-30T09:08:56.407Z,14.08
2023-03-30T09:09:56.387Z,14.04
2023-03-30T09:10:56.385Z,13.96
2023-03-30T09:11:56.375Z,13.87
2023-03-30T09:12:56.374Z,13.85
2023-03-30T09:13:56.345Z,13.71
2023-03-30T09:14:56.340Z,13.67
2023-03-30T09:15:56.322Z,13.54
2023-03-30T09:16:56.346Z,13.49
2023-03-30T09:17:56.337Z,13.38
2023-03-30T09:18:56.289Z,13.33
2023-03-30T09:19:56.281Z,13.25
2023-03-30T09:20:56.266Z,13.19
2023-03-30T09:21:56.239Z,13.11
2023-03-30T09:22:56.232Z,13.03
2023-03-30T09:23:56.246Z,12.98
2023-03-30T09:24:56.219Z,12.93
2023-03-30T09:25:56.190Z,12.85
2023-03-30T09:26:56.190Z,12.83
2023-03-30T09:27:56.165Z,12.76
2023-03-30T09:28:56.154Z,12.64
2023-03-30T09:29:56.137Z,12.58
2023-03-30T09:30:56.129Z,12.47
2023-03-30T09:31:56.211Z,12.36
2023-03-30T09:32:56.151Z,12.29
2023-03-30T09:33:56.093Z,12.21
2023-03-30T09:34:56.068Z,12.12
2023-03-30T09:35:56.075Z,12.03
2023-03-30T09:36:56.070Z,11.99
2023-03-30T09:37:56.060Z,11.88
2023-03-30T09:38:56.071Z,11.75
2023-03-30T09:39:56.040Z,11.73
2023-03-30T09:40:56.001Z,11.62
2023-03-30T09:41:55.990Z,11.48
2023-03-30T09:42:55.970Z,11.41
2023-03-30T09:43:55.962Z,11.37
2023-03-30T09:44:55.960Z,11.33
2023-03-30T09:45:55.999Z,11.29
2023-03-30T09:46:55.931Z,11.22
2023-03-30T09:47:55.941Z,11.18
2023-03-30T09:48:55.894Z,11.14
2023-03-30T09:49:55.890Z,11.12
2023-03-30T09:50:55.882Z,11.08
2023-03-30T09:51:55.875Z,11.05
2023-03-30T09:52:55.857Z,11.04
2023-03-30T09:53:55.843Z,11.00
2023-03-30T09:54:55.835Z,10.96
2023-03-30T09:55:55.840Z,10.96
2023-03-30T09:56:55.861Z,10.96
2023-03-30T09:57:55.783Z,10.94
2023-03-30T09:58:55.772Z,10.94
2023-03-30T09:59:55.791Z,10.99
2023-03-30T10:00:55.738Z,10.97
2023-03-30T10:01:55.786Z,10.96
2023-03-30T10:02:55.999Z,10.99
2023-03-30T10:03:55.824Z,10.94
2023-03-30T10:04:55.764Z,10.97
2023-03-30T10:05:55.678Z,10.97
2023-03-30T10:06:55.686Z,10.94
2023-03-30T10:07:55.676Z,10.96
2023-03-30T10:08:55.671Z,10.94
2023-03-30T10:09:55.676Z,10.96
2023-03-30T10:10:55.627Z,10.97
2023-03-30T10:11:55.638Z,10.99
2023-03-30T10:12:55.594Z,10.97
2023-03-30T10:13:55.571Z,10.99
2023-03-30T10:14:55.578Z,10.99
2023-03-30T10:15:55.644Z,10.99
2023-03-30T10:16:55.539Z,11.02
2023-03-30T10:17:55.603Z,11.05
2023-03-30T10:18:55.513Z,11.07
2023-03-30T10:20:03.818Z,11.12
2023-03-30T10:20:56.511Z,11.19
2023-03-30T10:21:55.488Z,11.23
2023-03-30T10:22:55.481Z,11.27
2023-03-30T10:23:55.456Z,11.23
2023-03-30T10:24:55.788Z,11.19
2023-03-30T10:25:55.434Z,11.23
2023-03-30T10:26:55.419Z,11.18
2023-03-30T10:27:55.433Z,11.12
2023-03-30T10:28:55.390Z,11.15
2023-03-30T10:29:55.367Z,11.17
2023-03-30T10:30:55.384Z,11.15
2023-03-30T10:31:55.441Z,11.12
2023-03-30T10:32:55.413Z,11.12
2023-03-30T10:33:55.312Z,11.10
2023-03-30T10:34:55.308Z,11.11
2023-03-30T10:35:55.379Z,11.10
2023-03-30T10:36:55.293Z,11.12
2023-03-30T10:37:55.276Z,11.12
2023-03-30T10:38:55.251Z,11.10
2023-03-30T10:39:55.240Z,11.10
2023-03-30T10:40:55.253Z,11.12
2023-03-30T10:41:56.783Z,11.17
2023-03-30T10:42:55.240Z,11.14
2023-03-30T10:43:55.237Z,11.12
2023-03-30T10:44:55.182Z,11.14
2023-03-30T10:45:55.182Z,11.12
2023-03-30T10:46:55.174Z,11.11
2023-03-30T10:47:56.876Z,11.15
2023-03-30T10:48:55.132Z,11.11
2023-03-30T10:49:55.110Z,11.08
2023-03-30T10:50:55.104Z,11.05
2023-03-30T10:51:55.088Z,11.07
2023-03-30T10:52:59.191Z,11.00
2023-03-30T10:53:56.057Z,10.97
2023-03-30T10:54:55.051Z,10.94
2023-03-30T10:55:55.034Z,10.94
2023-03-30T10:56:55.033Z,10.97
2023-03-30T10:57:55.004Z,11.02
2023-03-30T10:58:54.990Z,11.04
2023-03-30T10:59:55.909Z,11.05
2023-03-30T11:00:55.079Z,11.07
2023-03-30T11:01:54.969Z,11.05
2023-03-30T11:02:54.986Z,11.04
2023-03-30T11:03:54.978Z,11.07
2023-03-30T11:04:54.924Z,11.07
2023-03-30T11:05:54.906Z,11.11
2023-03-30T11:06:54.896Z,11.14
2023-03-30T11:07:54.876Z,11.14
2023-03-30T11:08:54.886Z,11.12
2023-03-30T11:09:54.869Z,11.18
2023-03-30T11:10:54.845Z,11.14
2023-03-30T11:11:54.836Z,11.14
2023-03-30T11:12:54.837Z,11.15
2023-03-30T11:13:54.808Z,11.12
2023-03-30T11:14:54.798Z,11.11
2023-03-30T11:15:54.823Z,11.15
2023-03-30T11:16:54.782Z,11.19
2023-03-30T11:17:54.777Z,11.22
2023-03-30T11:18:54.782Z,11.23
2023-03-30T11:19:54.721Z,11.23
2023-03-30T11:20:54.707Z,11.23
2023-03-30T11:21:54.701Z,11.27
2023-03-30T11:22:54.688Z,11.23
2023-03-30T11:23:54.695Z,11.22
2023-03-30T11:24:54.674Z,11.17
2023-03-30T11:25:54.648Z,11.17
2023-03-30T11:26:54.637Z,11.12
2023-03-30T11:27:56.250Z,11.12
2023-03-30T11:28:54.622Z,11.14
2023-03-30T11:29:54.601Z,11.12
2023-03-30T11:30:54.587Z,11.12
2023-03-30T11:31:54.649Z,11.17
2023-03-30T11:32:54.625Z,11.12
2023-03-30T11:33:54.539Z,11.12
2023-03-30T11:34:54.525Z,11.12
2023-03-30T11:35:54.526Z,11.10
2023-03-30T11:36:54.499Z,11.05
2023-03-30T11:37:54.496Z,11.05
2023-03-30T11:38:54.495Z,11.02
2023-03-30T11:39:54.459Z,11.02
2023-03-30T11:40:54.453Z,11.00
2023-03-30T11:41:54.440Z,11.05
2023-03-30T11:42:54.430Z,11.05
2023-03-30T11:43:54.409Z,11.07
2023-03-30T11:44:54.406Z,11.04
2023-03-30T11:45:54.400Z,11.04
2023-03-30T11:46:54.791Z,11.02
2023-03-30T11:47:54.432Z,11.05
2023-03-30T11:48:54.361Z,11.11
2023-03-30T11:49:54.332Z,11.17
2023-03-30T11:50:54.327Z,11.23
2023-03-30T11:51:54.324Z,11.30
2023-03-30T11:52:54.306Z,11.29
2023-03-30T11:53:54.297Z,11.29
2023-03-30T11:55:03.018Z,11.37
2023-03-30T11:55:55.307Z,11.47
2023-03-30T11:56:54.270Z,11.47
2023-03-30T11:57:54.258Z,11.48
2023-03-30T11:58:54.237Z,11.50
2023-03-30T11:59:54.208Z,11.48
2023-03-30T12:00:54.193Z,11.52
2023-03-30T12:01:54.191Z,11.55
2023-03-30T12:02:54.360Z,11.51
2023-03-30T12:03:54.475Z,11.52
2023-03-30T12:04:54.186Z,11.47
2023-03-30T12:05:54.149Z,11.40
2023-03-30T12:06:54.120Z,11.32
2023-03-30T12:07:54.112Z,11.30
2023-03-30T12:08:54.093Z,11.32
2023-03-30T12:09:54.084Z,11.25
2023-03-30T12:10:54.058Z,11.25
2023-03-30T12:11:54.063Z,11.23
2023-03-30T12:12:54.061Z,11.19
2023-03-30T12:13:54.024Z,11.17
2023-03-30T12:14:54.012Z,11.18
2023-03-30T12:15:54.064Z,11.12
2023-03-30T12:16:54.030Z,11.10
2023-03-30T12:17:54.011Z,11.11
2023-03-30T12:18:53.968Z,11.12
2023-03-30T12:19:56.404Z,11.17
2023-03-30T12:20:53.947Z,11.26
2023-03-30T12:21:53.939Z,11.40
2023-03-30T12:22:53.907Z,11.48
2023-03-30T12:23:53.908Z,11.57
2023-03-30T12:24:53.883Z,11.69
2023-03-30T12:25:53.874Z,11.80
2023-03-30T12:27:53.858Z,12.02
2023-03-30T12:29:32.706Z,12.07
2023-03-30T12:30:01.494Z,12.09
2023-03-30T12:30:54.864Z,12.12
2023-03-30T12:31:53.841Z,12.18
2023-03-30T12:32:53.819Z,12.17
2023-03-30T12:33:53.764Z,12.17
2023-03-30T12:34:53.750Z,12.17
2023-03-30T12:35:53.803Z,12.09
2023-03-30T12:36:53.724Z,12.09
2023-03-30T12:37:53.726Z,12.09
2023-03-30T12:38:53.710Z,12.13
2023-03-30T12:39:53.703Z,12.15
2023-03-30T12:40:53.691Z,12.12
2023-03-30T12:41:55.952Z,12.12
2023-03-30T12:42:53.657Z,12.10
2023-03-30T12:43:53.643Z,12.04
2023-03-30T12:44:53.640Z,12.02
2023-03-30T12:45:53.654Z,12.04
2023-03-30T12:46:53.593Z,12.02
2023-03-30T12:47:53.622Z,12.02
2023-03-30T12:48:53.578Z,11.99
2023-03-30T12:49:53.565Z,11.95
2023-03-30T12:50:53.545Z,11.90
2023-03-30T12:51:53.556Z,11.88
2023-03-30T12:52:53.517Z,11.88
2023-03-30T12:53:53.510Z,11.84
2023-03-30T12:54:53.488Z,11.86
2023-03-30T12:55:53.489Z,11.87
2023-03-30T12:56:53.490Z,11.91
2023-03-30T12:57:53.467Z,11.95
2023-03-30T12:58:53.463Z,11.95